sensor_id;sensor_type;location;lat;lon;timestamp;P1;durP1;ratioP1;P2;durP2;ratioP2
76131;SDS011;64877;50.994;13.650;2023-12-28T00:01:21;8.55;;;4.47;;
76131;SDS011;64877;50.994;13.650;2023-12-28T00:03:47;7.63;;;3.80;;
76131;SDS011;64877;50.994;13.650;2023-12-28T00:06:13;9.15;;;4.53;;
76131;SDS011;64877;50.994;13.650;2023-12-28T00:08:39;9.75;;;3.90;;
76131;SDS011;64877;50.994;13.650;2023-12-28T00:11:04;11.75;;;4.25;;
76131;SDS011;64877;50.994;13.650;2023-12-28T00:13:30;8.82;;;3.72;;
76131;SDS011;64877;50.994;13.650;2023-12-28T00:15:55;7.97;;;3.65;;
76131;SDS011;64877;50.994;13.650;2023-12-28T00:18:20;5.93;;;2.45;;
76131;SDS011;64877;50.994;13.650;2023-12-28T00:20:46;6.80;;;1.70;;
76131;SDS011;64877;50.994;13.650;2023-12-28T00:23:11;6.55;;;2.03;;
76131;SDS011;64877;50.994;13.650;2023-12-28T00:25:37;3.67;;;1.40;;
76131;SDS011;64877;50.994;13.650;2023-12-28T00:28:02;3.63;;;1.15;;
76131;SDS011;64877;50.994;13.650;2023-12-28T00:30:28;3.40;;;1.20;;
76131;SDS011;64877;50.994;13.650;2023-12-28T00:32:53;3.55;;;1.30;;
76131;SDS011;64877;50.994;13.650;2023-12-28T00:35:19;2.47;;;1.15;;
76131;SDS011;64877;50.994;13.650;2023-12-28T00:37:44;3.38;;;1.17;;
76131;SDS011;64877;50.994;13.650;2023-12-28T00:40:10;2.42;;;1.02;;
76131;SDS011;64877;50.994;13.650;2023-12-28T00:42:35;2.13;;;0.80;;
76131;SDS011;64877;50.994;13.650;2023-12-28T00:45:01;1.83;;;0.90;;
76131;SDS011;64877;50.994;13.650;2023-12-28T00:47:27;2.05;;;0.73;;
76131;SDS011;64877;50.994;13.650;2023-12-28T00:49:53;1.20;;;0.68;;
76131;SDS011;64877;50.994;13.650;2023-12-28T00:52:18;2.67;;;0.95;;
76131;SDS011;64877;50.994;13.650;2023-12-28T00:54:44;1.60;;;0.60;;
76131;SDS011;64877;50.994;13.650;2023-12-28T00:57:09;2.33;;;0.82;;
76131;SDS011;64877;50.994;13.650;2023-12-28T00:59:35;1.67;;;0.88;;
76131;SDS011;64877;50.994;13.650;2023-12-28T01:02:01;3.22;;;1.05;;
76131;SDS011;64877;50.994;13.650;2023-12-28T01:04:27;1.63;;;0.52;;
76131;SDS011;64877;50.994;13.650;2023-12-28T01:06:52;1.58;;;0.98;;
76131;SDS011;64877;50.994;13.650;2023-12-28T01:09:18;1.48;;;0.70;;
76131;SDS011;64877;50.994;13.650;2023-12-28T01:11:43;2.45;;;0.70;;
76131;SDS011;64877;50.994;13.650;2023-12-28T01:14:09;0.93;;;0.43;;
76131;SDS011;64877;50.994;13.650;2023-12-28T01:16:34;1.23;;;0.60;;
76131;SDS011;64877;50.994;13.650;2023-12-28T01:19:01;1.83;;;0.70;;
76131;SDS011;64877;50.994;13.650;2023-12-28T01:21:27;2.05;;;0.73;;
76131;SDS011;64877;50.994;13.650;2023-12-28T01:23:54;1.13;;;0.50;;
76131;SDS011;64877;50.994;13.650;2023-12-28T01:26:19;1.50;;;0.68;;
76131;SDS011;64877;50.994;13.650;2023-12-28T01:28:45;1.20;;;0.50;;
76131;SDS011;64877;50.994;13.650;2023-12-28T01:31:11;2.35;;;0.70;;
76131;SDS011;64877;50.994;13.650;2023-12-28T01:33:36;1.90;;;0.70;;
76131;SDS011;64877;50.994;13.650;2023-12-28T01:36:15;1.13;;;0.60;;
76131;SDS011;64877;50.994;13.650;2023-12-28T01:38:44;1.20;;;0.60;;
76131;SDS011;64877;50.994;13.650;2023-12-28T01:41:11;3.35;;;1.55;;
76131;SDS011;64877;50.994;13.650;2023-12-28T01:43:37;0.90;;;0.40;;
76131;SDS011;64877;50.994;13.650;2023-12-28T01:46:04;1.05;;;0.60;;
76131;SDS011;64877;50.994;13.650;2023-12-28T01:48:31;1.60;;;0.80;;
76131;SDS011;64877;50.994;13.650;2023-12-28T01:50:57;1.27;;;0.60;;
76131;SDS011;64877;50.994;13.650;2023-12-28T01:53:23;2.00;;;0.60;;
76131;SDS011;64877;50.994;13.650;2023-12-28T01:55:49;1.42;;;0.50;;
76131;SDS011;64877;50.994;13.650;2023-12-28T01:58:14;1.25;;;0.50;;
76131;SDS011;64877;50.994;13.650;2023-12-28T02:00:40;1.60;;;0.70;;
76131;SDS011;64877;50.994;13.650;2023-12-28T02:03:07;1.48;;;0.50;;
76131;SDS011;64877;50.994;13.650;2023-12-28T02:05:34;1.55;;;0.55;;
76131;SDS011;64877;50.994;13.650;2023-12-28T02:08:00;3.22;;;0.85;;
76131;SDS011;64877;50.994;13.650;2023-12-28T02:10:27;2.22;;;0.93;;
76131;SDS011;64877;50.994;13.650;2023-12-28T02:12:53;1.10;;;0.60;;
76131;SDS011;64877;50.994;13.650;2023-12-28T02:15:18;1.90;;;0.50;;
76131;SDS011;64877;50.994;13.650;2023-12-28T02:20:13;1.27;;;0.60;;
76131;SDS011;64877;50.994;13.650;2023-12-28T02:22:40;1.33;;;0.50;;
76131;SDS011;64877;50.994;13.650;2023-12-28T02:25:07;0.40;;;0.30;;
76131;SDS011;64877;50.994;13.650;2023-12-28T02:30:13;1.23;;;0.77;;
76131;SDS011;64877;50.994;13.650;2023-12-28T02:32:50;1.30;;;0.60;;
76131;SDS011;64877;50.994;13.650;2023-12-28T02:35:23;1.42;;;0.65;;
76131;SDS011;64877;50.994;13.650;2023-12-28T02:37:51;1.88;;;0.73;;
76131;SDS011;64877;50.994;13.650;2023-12-28T02:40:21;2.08;;;0.60;;
76131;SDS011;64877;50.994;13.650;2023-12-28T02:42:48;0.85;;;0.30;;
76131;SDS011;64877;50.994;13.650;2023-12-28T02:45:14;1.10;;;0.52;;
76131;SDS011;64877;50.994;13.650;2023-12-28T02:47:39;1.10;;;0.50;;
76131;SDS011;64877;50.994;13.650;2023-12-28T02:50:05;1.42;;;0.63;;
76131;SDS011;64877;50.994;13.650;2023-12-28T02:52:31;1.50;;;0.63;;
76131;SDS011;64877;50.994;13.650;2023-12-28T02:54:57;1.65;;;0.50;;
76131;SDS011;64877;50.994;13.650;2023-12-28T02:57:22;2.10;;;0.65;;
76131;SDS011;64877;50.994;13.650;2023-12-28T02:59:48;1.52;;;0.63;;
76131;SDS011;64877;50.994;13.650;2023-12-28T03:02:13;1.17;;;0.68;;
76131;SDS011;64877;50.994;13.650;2023-12-28T03:04:39;2.40;;;0.77;;
76131;SDS011;64877;50.994;13.650;2023-12-28T03:07:07;1.65;;;0.57;;
76131;SDS011;64877;50.994;13.650;2023-12-28T03:09:33;1.48;;;0.60;;
76131;SDS011;64877;50.994;13.650;2023-12-28T03:11:59;1.17;;;0.65;;
76131;SDS011;64877;50.994;13.650;2023-12-28T03:14:25;1.15;;;0.50;;
76131;SDS011;64877;50.994;13.650;2023-12-28T03:16:51;2.20;;;0.70;;
76131;SDS011;64877;50.994;13.650;2023-12-28T03:19:16;2.35;;;0.85;;
76131;SDS011;64877;50.994;13.650;2023-12-28T03:21:43;1.63;;;0.60;;
76131;SDS011;64877;50.994;13.650;2023-12-28T03:24:08;1.80;;;0.93;;
76131;SDS011;64877;50.994;13.650;2023-12-28T03:26:40;1.48;;;0.85;;
76131;SDS011;64877;50.994;13.650;2023-12-28T03:29:06;1.38;;;0.77;;
76131;SDS011;64877;50.994;13.650;2023-12-28T03:31:32;1.45;;;0.50;;
76131;SDS011;64877;50.994;13.650;2023-12-28T03:33:57;1.17;;;0.65;;
76131;SDS011;64877;50.994;13.650;2023-12-28T03:36:23;1.17;;;0.60;;
76131;SDS011;64877;50.994;13.650;2023-12-28T03:38:48;1.70;;;0.70;;
76131;SDS011;64877;50.994;13.650;2023-12-28T03:41:20;1.75;;;0.73;;
76131;SDS011;64877;50.994;13.650;2023-12-28T03:43:46;1.27;;;0.90;;
76131;SDS011;64877;50.994;13.650;2023-12-28T03:46:12;2.95;;;0.93;;
76131;SDS011;64877;50.994;13.650;2023-12-28T03:48:38;1.10;;;0.60;;
76131;SDS011;64877;50.994;13.650;2023-12-28T03:51:05;1.08;;;0.57;;
76131;SDS011;64877;50.994;13.650;2023-12-28T03:53:30;1.95;;;0.85;;
76131;SDS011;64877;50.994;13.650;2023-12-28T03:55:56;1.95;;;0.88;;
76131;SDS011;64877;50.994;13.650;2023-12-28T03:58:24;1.77;;;0.70;;
76131;SDS011;64877;50.994;13.650;2023-12-28T04:00:50;1.88;;;0.60;;
76131;SDS011;64877;50.994;13.650;2023-12-28T04:03:16;1.63;;;0.65;;
76131;SDS011;64877;50.994;13.650;2023-12-28T04:05:43;1.77;;;0.80;;
76131;SDS011;64877;50.994;13.650;2023-12-28T04:08:27;1.27;;;0.60;;
76131;SDS011;64877;50.994;13.650;2023-12-28T04:10:53;1.58;;;0.80;;
76131;SDS011;64877;50.994;13.650;2023-12-28T04:13:18;2.67;;;0.80;;
76131;SDS011;64877;50.994;13.650;2023-12-28T04:15:44;1.73;;;0.90;;
76131;SDS011;64877;50.994;13.650;2023-12-28T04:18:09;2.53;;;0.80;;
76131;SDS011;64877;50.994;13.650;2023-12-28T04:20:34;2.08;;;0.95;;
76131;SDS011;64877;50.994;13.650;2023-12-28T04:23:00;1.58;;;0.60;;
76131;SDS011;64877;50.994;13.650;2023-12-28T04:25:25;2.03;;;0.85;;
76131;SDS011;64877;50.994;13.650;2023-12-28T04:27:51;1.70;;;0.80;;
76131;SDS011;64877;50.994;13.650;2023-12-28T04:30:16;2.72;;;1.00;;
76131;SDS011;64877;50.994;13.650;2023-12-28T04:32:41;2.47;;;0.90;;
76131;SDS011;64877;50.994;13.650;2023-12-28T04:35:07;2.60;;;1.00;;
76131;SDS011;64877;50.994;13.650;2023-12-28T04:37:32;1.58;;;0.95;;
76131;SDS011;64877;50.994;13.650;2023-12-28T04:39:58;1.67;;;0.80;;
76131;SDS011;64877;50.994;13.650;2023-12-28T04:42:23;2.50;;;0.98;;
76131;SDS011;64877;50.994;13.650;2023-12-28T04:44:49;1.90;;;0.90;;
76131;SDS011;64877;50.994;13.650;2023-12-28T04:47:14;2.08;;;1.00;;
76131;SDS011;64877;50.994;13.650;2023-12-28T04:49:40;1.60;;;0.80;;
76131;SDS011;64877;50.994;13.650;2023-12-28T04:52:05;1.90;;;1.23;;
76131;SDS011;64877;50.994;13.650;2023-12-28T04:54:31;1.90;;;1.00;;
76131;SDS011;64877;50.994;13.650;2023-12-28T04:56:58;2.28;;;0.88;;
76131;SDS011;64877;50.994;13.650;2023-12-28T04:59:23;4.60;;;1.15;;
76131;SDS011;64877;50.994;13.650;2023-12-28T05:01:49;2.42;;;1.10;;
76131;SDS011;64877;50.994;13.650;2023-12-28T05:04:15;2.88;;;1.00;;
76131;SDS011;64877;50.994;13.650;2023-12-28T05:06:41;3.03;;;1.10;;
76131;SDS011;64877;50.994;13.650;2023-12-28T05:09:07;3.33;;;1.50;;
76131;SDS011;64877;50.994;13.650;2023-12-28T05:11:33;3.72;;;1.45;;
76131;SDS011;64877;50.994;13.650;2023-12-28T05:13:59;2.45;;;1.08;;
76131;SDS011;64877;50.994;13.650;2023-12-28T05:16:24;2.28;;;1.20;;
76131;SDS011;64877;50.994;13.650;2023-12-28T05:18:50;2.85;;;1.08;;
76131;SDS011;64877;50.994;13.650;2023-12-28T05:21:15;3.15;;;1.20;;
76131;SDS011;64877;50.994;13.650;2023-12-28T05:23:40;2.88;;;1.30;;
76131;SDS011;64877;50.994;13.650;2023-12-28T05:26:06;2.33;;;1.15;;
76131;SDS011;64877;50.994;13.650;2023-12-28T05:28:31;1.77;;;0.88;;
76131;SDS011;64877;50.994;13.650;2023-12-28T05:30:57;2.45;;;1.10;;
76131;SDS011;64877;50.994;13.650;2023-12-28T05:33:26;2.45;;;0.93;;
76131;SDS011;64877;50.994;13.650;2023-12-28T05:35:51;2.15;;;1.00;;
76131;SDS011;64877;50.994;13.650;2023-12-28T05:38:17;3.45;;;1.20;;
76131;SDS011;64877;50.994;13.650;2023-12-28T05:40:43;2.22;;;1.00;;
76131;SDS011;64877;50.994;13.650;2023-12-28T05:43:10;1.88;;;0.80;;
76131;SDS011;64877;50.994;13.650;2023-12-28T05:45:36;1.90;;;1.02;;
76131;SDS011;64877;50.994;13.650;2023-12-28T05:48:01;2.60;;;1.15;;
76131;SDS011;64877;50.994;13.650;2023-12-28T05:50:27;3.22;;;0.90;;
76131;SDS011;64877;50.994;13.650;2023-12-28T05:52:52;4.70;;;1.90;;
76131;SDS011;64877;50.994;13.650;2023-12-28T05:55:17;2.40;;;1.00;;
76131;SDS011;64877;50.994;13.650;2023-12-28T05:57:43;2.92;;;1.00;;
76131;SDS011;64877;50.994;13.650;2023-12-28T06:00:09;2.85;;;1.08;;
76131;SDS011;64877;50.994;13.650;2023-12-28T06:02:38;6.80;;;1.00;;
76131;SDS011;64877;50.994;13.650;2023-12-28T06:05:03;2.78;;;1.10;;
76131;SDS011;64877;50.994;13.650;2023-12-28T06:07:29;2.78;;;1.05;;
76131;SDS011;64877;50.994;13.650;2023-12-28T06:09:54;4.68;;;1.20;;
76131;SDS011;64877;50.994;13.650;2023-12-28T06:12:20;3.55;;;1.00;;
76131;SDS011;64877;50.994;13.650;2023-12-28T06:14:45;2.50;;;1.02;;
76131;SDS011;64877;50.994;13.650;2023-12-28T06:17:10;2.83;;;1.02;;
76131;SDS011;64877;50.994;13.650;2023-12-28T06:19:36;2.67;;;1.00;;
76131;SDS011;64877;50.994;13.650;2023-12-28T06:22:01;5.28;;;1.05;;
76131;SDS011;64877;50.994;13.650;2023-12-28T06:24:27;1.90;;;1.08;;
76131;SDS011;64877;50.994;13.650;2023-12-28T06:26:52;2.10;;;1.00;;
76131;SDS011;64877;50.994;13.650;2023-12-28T06:29:18;3.28;;;0.85;;
76131;SDS011;64877;50.994;13.650;2023-12-28T06:31:43;2.45;;;1.13;;
76131;SDS011;64877;50.994;13.650;2023-12-28T06:34:08;3.20;;;0.93;;
76131;SDS011;64877;50.994;13.650;2023-12-28T06:36:34;1.95;;;0.88;;
76131;SDS011;64877;50.994;13.650;2023-12-28T06:38:59;2.28;;;1.02;;
76131;SDS011;64877;50.994;13.650;2023-12-28T06:41:25;2.08;;;0.80;;
76131;SDS011;64877;50.994;13.650;2023-12-28T06:43:51;2.40;;;0.98;;
76131;SDS011;64877;50.994;13.650;2023-12-28T06:46:17;2.70;;;1.10;;
76131;SDS011;64877;50.994;13.650;2023-12-28T06:48:43;5.18;;;1.17;;
76131;SDS011;64877;50.994;13.650;2023-12-28T06:51:09;5.13;;;1.30;;
76131;SDS011;64877;50.994;13.650;2023-12-28T06:53:40;4.22;;;1.15;;
76131;SDS011;64877;50.994;13.650;2023-12-28T06:56:06;3.25;;;1.13;;
76131;SDS011;64877;50.994;13.650;2023-12-28T06:58:31;7.63;;;3.42;;
76131;SDS011;64877;50.994;13.650;2023-12-28T07:00:57;4.93;;;2.45;;
76131;SDS011;64877;50.994;13.650;2023-12-28T07:03:22;3.13;;;1.88;;
76131;SDS011;64877;50.994;13.650;2023-12-28T07:08:16;2.15;;;1.00;;
76131;SDS011;64877;50.994;13.650;2023-12-28T07:10:41;4.18;;;1.40;;
76131;SDS011;64877;50.994;13.650;2023-12-28T07:13:07;2.72;;;1.17;;
76131;SDS011;64877;50.994;13.650;2023-12-28T07:15:32;2.65;;;0.95;;
76131;SDS011;64877;50.994;13.650;2023-12-28T07:17:58;3.30;;;0.98;;
76131;SDS011;64877;50.994;13.650;2023-12-28T07:20:23;3.72;;;1.23;;
76131;SDS011;64877;50.994;13.650;2023-12-28T07:22:48;2.20;;;1.20;;
76131;SDS011;64877;50.994;13.650;2023-12-28T07:25:14;3.10;;;1.00;;
76131;SDS011;64877;50.994;13.650;2023-12-28T07:27:39;2.85;;;0.80;;
76131;SDS011;64877;50.994;13.650;2023-12-28T07:30:05;3.38;;;1.40;;
76131;SDS011;64877;50.994;13.650;2023-12-28T07:32:32;2.83;;;1.38;;
76131;SDS011;64877;50.994;13.650;2023-12-28T07:34:57;2.20;;;1.23;;
76131;SDS011;64877;50.994;13.650;2023-12-28T07:37:24;2.60;;;1.42;;
76131;SDS011;64877;50.994;13.650;2023-12-28T07:39:49;3.80;;;1.48;;
76131;SDS011;64877;50.994;13.650;2023-12-28T07:42:15;3.63;;;1.98;;
76131;SDS011;64877;50.994;13.650;2023-12-28T07:44:40;3.10;;;1.63;;
76131;SDS011;64877;50.994;13.650;2023-12-28T07:47:06;3.80;;;1.27;;
76131;SDS011;64877;50.994;13.650;2023-12-28T07:49:31;2.88;;;1.48;;
76131;SDS011;64877;50.994;13.650;2023-12-28T07:51:57;2.03;;;1.10;;
76131;SDS011;64877;50.994;13.650;2023-12-28T07:54:22;2.50;;;1.15;;
76131;SDS011;64877;50.994;13.650;2023-12-28T07:56:48;3.05;;;1.40;;
76131;SDS011;64877;50.994;13.650;2023-12-28T07:59:13;2.40;;;1.13;;
76131;SDS011;64877;50.994;13.650;2023-12-28T08:01:38;2.33;;;1.10;;
76131;SDS011;64877;50.994;13.650;2023-12-28T08:04:04;2.70;;;1.13;;
76131;SDS011;64877;50.994;13.650;2023-12-28T08:06:29;4.50;;;1.38;;
76131;SDS011;64877;50.994;13.650;2023-12-28T08:08:59;2.50;;;1.17;;
76131;SDS011;64877;50.994;13.650;2023-12-28T08:11:28;4.35;;;1.50;;
76131;SDS011;64877;50.994;13.650;2023-12-28T08:13:53;4.50;;;2.10;;
76131;SDS011;64877;50.994;13.650;2023-12-28T08:16:19;4.32;;;2.13;;
76131;SDS011;64877;50.994;13.650;2023-12-28T08:18:45;3.97;;;1.83;;
76131;SDS011;64877;50.994;13.650;2023-12-28T08:21:10;4.63;;;2.10;;
76131;SDS011;64877;50.994;13.650;2023-12-28T08:23:35;2.80;;;1.45;;
76131;SDS011;64877;50.994;13.650;2023-12-28T08:26:01;2.92;;;1.20;;
76131;SDS011;64877;50.994;13.650;2023-12-28T08:28:27;4.32;;;1.30;;
76131;SDS011;64877;50.994;13.650;2023-12-28T08:30:53;4.72;;;1.50;;
76131;SDS011;64877;50.994;13.650;2023-12-28T08:33:19;4.07;;;2.42;;
76131;SDS011;64877;50.994;13.650;2023-12-28T08:35:45;4.90;;;2.53;;
76131;SDS011;64877;50.994;13.650;2023-12-28T08:38:10;4.70;;;1.90;;
76131;SDS011;64877;50.994;13.650;2023-12-28T08:40:36;4.20;;;1.80;;
76131;SDS011;64877;50.994;13.650;2023-12-28T08:43:01;3.90;;;1.98;;
76131;SDS011;64877;50.994;13.650;2023-12-28T08:45:27;3.38;;;1.60;;
76131;SDS011;64877;50.994;13.650;2023-12-28T08:47:52;4.10;;;1.40;;
76131;SDS011;64877;50.994;13.650;2023-12-28T08:50:18;2.35;;;1.27;;
76131;SDS011;64877;50.994;13.650;2023-12-28T08:52:43;2.20;;;1.13;;
76131;SDS011;64877;50.994;13.650;2023-12-28T08:55:09;3.83;;;1.42;;
76131;SDS011;64877;50.994;13.650;2023-12-28T08:57:34;2.60;;;1.20;;
76131;SDS011;64877;50.994;13.650;2023-12-28T09:00:00;2.63;;;1.40;;
76131;SDS011;64877;50.994;13.650;2023-12-28T09:02:28;2.47;;;1.15;;
76131;SDS011;64877;50.994;13.650;2023-12-28T09:04:53;2.05;;;1.10;;
76131;SDS011;64877;50.994;13.650;2023-12-28T09:07:19;3.90;;;1.30;;
76131;SDS011;64877;50.994;13.650;2023-12-28T09:09:44;2.63;;;1.52;;
76131;SDS011;64877;50.994;13.650;2023-12-28T09:12:10;2.78;;;1.40;;
76131;SDS011;64877;50.994;13.650;2023-12-28T09:14:36;2.45;;;1.30;;
76131;SDS011;64877;50.994;13.650;2023-12-28T09:17:02;2.28;;;1.30;;
76131;SDS011;64877;50.994;13.650;2023-12-28T09:19:27;2.95;;;1.35;;
76131;SDS011;64877;50.994;13.650;2023-12-28T09:21:53;2.70;;;1.40;;
76131;SDS011;64877;50.994;13.650;2023-12-28T09:24:18;2.50;;;1.30;;
76131;SDS011;64877;50.994;13.650;2023-12-28T09:26:44;6.13;;;1.30;;
76131;SDS011;64877;50.994;13.650;2023-12-28T09:29:09;2.92;;;1.30;;
76131;SDS011;64877;50.994;13.650;2023-12-28T09:31:35;2.78;;;1.38;;
76131;SDS011;64877;50.994;13.650;2023-12-28T09:34:00;2.78;;;1.40;;
76131;SDS011;64877;50.994;13.650;2023-12-28T09:36:25;2.67;;;1.35;;
76131;SDS011;64877;50.994;13.650;2023-12-28T09:38:51;2.88;;;1.05;;
76131;SDS011;64877;50.994;13.650;2023-12-28T09:41:16;3.28;;;1.50;;
76131;SDS011;64877;50.994;13.650;2023-12-28T09:46:31;3.13;;;1.48;;
76131;SDS011;64877;50.994;13.650;2023-12-28T09:48:57;2.67;;;1.55;;
76131;SDS011;64877;50.994;13.650;2023-12-28T09:51:24;3.45;;;1.45;;
76131;SDS011;64877;50.994;13.650;2023-12-28T09:53:50;4.03;;;1.50;;
76131;SDS011;64877;50.994;13.650;2023-12-28T09:56:16;9.45;;;5.15;;
76131;SDS011;64877;50.994;13.650;2023-12-28T09:58:42;6.22;;;2.30;;
76131;SDS011;64877;50.994;13.650;2023-12-28T10:01:09;2.33;;;1.20;;
76131;SDS011;64877;50.994;13.650;2023-12-28T10:03:35;3.25;;;1.30;;
76131;SDS011;64877;50.994;13.650;2023-12-28T10:06:01;3.60;;;1.27;;
76131;SDS011;64877;50.994;13.650;2023-12-28T10:08:26;2.78;;;1.25;;
76131;SDS011;64877;50.994;13.650;2023-12-28T10:10:52;3.63;;;1.30;;
76131;SDS011;64877;50.994;13.650;2023-12-28T10:13:19;2.85;;;1.35;;
76131;SDS011;64877;50.994;13.650;2023-12-28T10:15:46;3.05;;;1.48;;
76131;SDS011;64877;50.994;13.650;2023-12-28T10:18:12;3.28;;;1.10;;
76131;SDS011;64877;50.994;13.650;2023-12-28T10:20:38;2.20;;;1.00;;
76131;SDS011;64877;50.994;13.650;2023-12-28T10:23:04;3.28;;;1.10;;
76131;SDS011;64877;50.994;13.650;2023-12-28T10:25:30;3.28;;;1.23;;
76131;SDS011;64877;50.994;13.650;2023-12-28T10:27:57;3.45;;;1.35;;
76131;SDS011;64877;50.994;13.650;2023-12-28T10:30:22;3.35;;;1.40;;
76131;SDS011;64877;50.994;13.650;2023-12-28T10:32:48;3.30;;;1.42;;
76131;SDS011;64877;50.994;13.650;2023-12-28T10:35:14;4.05;;;1.13;;
76131;SDS011;64877;50.994;13.650;2023-12-28T10:37:40;2.63;;;1.33;;
76131;SDS011;64877;50.994;13.650;2023-12-28T10:40:07;2.10;;;0.90;;
76131;SDS011;64877;50.994;13.650;2023-12-28T10:42:53;2.33;;;1.30;;
76131;SDS011;64877;50.994;13.650;2023-12-28T10:45:24;4.32;;;1.33;;
76131;SDS011;64877;50.994;13.650;2023-12-28T10:48:00;2.42;;;1.23;;
76131;SDS011;64877;50.994;13.650;2023-12-28T10:50:34;3.47;;;1.35;;
76131;SDS011;64877;50.994;13.650;2023-12-28T10:57:05;2.58;;;1.25;;
76131;SDS011;64877;50.994;13.650;2023-12-28T11:01:35;2.95;;;1.38;;
76131;SDS011;64877;50.994;13.650;2023-12-28T11:04:09;2.40;;;1.23;;
76131;SDS011;64877;50.994;13.650;2023-12-28T11:06:41;3.08;;;1.10;;
76131;SDS011;64877;50.994;13.650;2023-12-28T11:09:08;2.22;;;1.02;;
76131;SDS011;64877;50.994;13.650;2023-12-28T11:11:36;3.13;;;0.98;;
76131;SDS011;64877;50.994;13.650;2023-12-28T11:14:02;4.82;;;1.20;;
76131;SDS011;64877;50.994;13.650;2023-12-28T11:16:29;3.25;;;1.27;;
76131;SDS011;64877;50.994;13.650;2023-12-28T11:18:56;1.70;;;0.88;;
76131;SDS011;64877;50.994;13.650;2023-12-28T11:21:22;2.97;;;1.40;;
76131;SDS011;64877;50.994;13.650;2023-12-28T11:23:48;2.10;;;0.82;;
76131;SDS011;64877;50.994;13.650;2023-12-28T11:26:15;3.88;;;1.58;;
76131;SDS011;64877;50.994;13.650;2023-12-28T11:28:42;2.60;;;0.90;;
76131;SDS011;64877;50.994;13.650;2023-12-28T11:31:10;2.08;;;1.10;;
76131;SDS011;64877;50.994;13.650;2023-12-28T11:33:45;3.90;;;1.20;;
76131;SDS011;64877;50.994;13.650;2023-12-28T11:36:11;3.45;;;1.20;;
76131;SDS011;64877;50.994;13.650;2023-12-28T11:38:47;1.95;;;1.13;;
76131;SDS011;64877;50.994;13.650;2023-12-28T11:41:19;3.83;;;1.40;;
76131;SDS011;64877;50.994;13.650;2023-12-28T11:43:51;2.03;;;0.90;;
76131;SDS011;64877;50.994;13.650;2023-12-28T11:46:18;2.45;;;1.13;;
76131;SDS011;64877;50.994;13.650;2023-12-28T11:48:44;2.22;;;1.17;;
76131;SDS011;64877;50.994;13.650;2023-12-28T11:51:10;2.38;;;1.10;;
76131;SDS011;64877;50.994;13.650;2023-12-28T11:53:35;2.03;;;1.10;;
76131;SDS011;64877;50.994;13.650;2023-12-28T11:56:01;3.35;;;1.27;;
76131;SDS011;64877;50.994;13.650;2023-12-28T11:58:28;4.15;;;1.73;;
76131;SDS011;64877;50.994;13.650;2023-12-28T12:00:54;2.97;;;1.45;;
76131;SDS011;64877;50.994;13.650;2023-12-28T12:03:20;3.08;;;1.10;;
76131;SDS011;64877;50.994;13.650;2023-12-28T12:05:45;3.38;;;1.50;;
76131;SDS011;64877;50.994;13.650;2023-12-28T12:08:10;1.98;;;1.00;;
76131;SDS011;64877;50.994;13.650;2023-12-28T12:10:39;1.95;;;1.05;;
76131;SDS011;64877;50.994;13.650;2023-12-28T12:13:05;2.15;;;1.20;;
76131;SDS011;64877;50.994;13.650;2023-12-28T12:15:31;2.97;;;1.20;;
76131;SDS011;64877;50.994;13.650;2023-12-28T12:17:56;3.28;;;1.50;;
76131;SDS011;64877;50.994;13.650;2023-12-28T12:20:22;5.32;;;1.50;;
76131;SDS011;64877;50.994;13.650;2023-12-28T12:22:48;5.90;;;1.52;;
76131;SDS011;64877;50.994;13.650;2023-12-28T12:25:14;3.47;;;1.30;;
76131;SDS011;64877;50.994;13.650;2023-12-28T12:27:41;2.80;;;1.23;;
76131;SDS011;64877;50.994;13.650;2023-12-28T12:30:06;2.30;;;1.27;;
76131;SDS011;64877;50.994;13.650;2023-12-28T12:32:33;4.60;;;1.50;;
76131;SDS011;64877;50.994;13.650;2023-12-28T12:35:02;2.30;;;1.20;;
76131;SDS011;64877;50.994;13.650;2023-12-28T12:37:28;3.58;;;0.88;;
76131;SDS011;64877;50.994;13.650;2023-12-28T12:39:54;2.55;;;1.38;;
76131;SDS011;64877;50.994;13.650;2023-12-28T12:42:19;2.72;;;1.33;;
76131;SDS011;64877;50.994;13.650;2023-12-28T12:44:45;4.55;;;1.30;;
76131;SDS011;64877;50.994;13.650;2023-12-28T12:47:12;3.72;;;1.13;;
76131;SDS011;64877;50.994;13.650;2023-12-28T12:49:38;2.63;;;0.90;;
76131;SDS011;64877;50.994;13.650;2023-12-28T12:52:03;2.20;;;1.15;;
76131;SDS011;64877;50.994;13.650;2023-12-28T12:54:29;3.08;;;1.10;;
76131;SDS011;64877;50.994;13.650;2023-12-28T12:56:54;1.65;;;0.90;;
76131;SDS011;64877;50.994;13.650;2023-12-28T12:59:22;1.65;;;0.85;;
76131;SDS011;64877;50.994;13.650;2023-12-28T13:01:47;1.60;;;0.90;;
76131;SDS011;64877;50.994;13.650;2023-12-28T13:04:13;6.78;;;1.35;;
76131;SDS011;64877;50.994;13.650;2023-12-28T13:06:41;2.72;;;1.38;;
76131;SDS011;64877;50.994;13.650;2023-12-28T13:09:06;3.22;;;1.10;;
76131;SDS011;64877;50.994;13.650;2023-12-28T13:11:33;2.03;;;0.95;;
76131;SDS011;64877;50.994;13.650;2023-12-28T13:13:59;2.35;;;0.95;;
76131;SDS011;64877;50.994;13.650;2023-12-28T13:16:25;2.63;;;0.90;;
76131;SDS011;64877;50.994;13.650;2023-12-28T13:18:50;2.75;;;1.10;;
76131;SDS011;64877;50.994;13.650;2023-12-28T13:21:16;1.50;;;0.77;;
76131;SDS011;64877;50.994;13.650;2023-12-28T13:23:41;3.53;;;1.17;;
76131;SDS011;64877;50.994;13.650;2023-12-28T13:26:07;2.28;;;0.80;;
76131;SDS011;64877;50.994;13.650;2023-12-28T13:28:32;1.52;;;0.88;;
76131;SDS011;64877;50.994;13.650;2023-12-28T13:30:58;3.20;;;1.00;;
76131;SDS011;64877;50.994;13.650;2023-12-28T13:33:23;2.22;;;0.90;;
76131;SDS011;64877;50.994;13.650;2023-12-28T13:36:15;1.80;;;0.80;;
76131;SDS011;64877;50.994;13.650;2023-12-28T13:38:41;2.97;;;1.42;;
76131;SDS011;64877;50.994;13.650;2023-12-28T13:41:06;3.47;;;1.20;;
76131;SDS011;64877;50.994;13.650;2023-12-28T13:43:32;2.65;;;1.20;;
76131;SDS011;64877;50.994;13.650;2023-12-28T13:45:57;3.03;;;1.05;;
76131;SDS011;64877;50.994;13.650;2023-12-28T13:48:22;1.85;;;0.90;;
76131;SDS011;64877;50.994;13.650;2023-12-28T13:50:48;2.45;;;1.15;;
76131;SDS011;64877;50.994;13.650;2023-12-28T13:53:16;2.53;;;1.10;;
76131;SDS011;64877;50.994;13.650;2023-12-28T13:55:41;2.92;;;1.02;;
76131;SDS011;64877;50.994;13.650;2023-12-28T13:58:08;2.15;;;1.05;;
76131;SDS011;64877;50.994;13.650;2023-12-28T14:00:35;3.30;;;1.40;;
76131;SDS011;64877;50.994;13.650;2023-12-28T14:03:01;3.83;;;1.30;;
76131;SDS011;64877;50.994;13.650;2023-12-28T14:05:28;2.42;;;1.20;;
76131;SDS011;64877;50.994;13.650;2023-12-28T14:07:54;1.48;;;0.82;;
76131;SDS011;64877;50.994;13.650;2023-12-28T14:10:19;1.98;;;1.00;;
76131;SDS011;64877;50.994;13.650;2023-12-28T14:12:45;2.38;;;1.00;;
76131;SDS011;64877;50.994;13.650;2023-12-28T14:15:11;2.15;;;1.05;;
76131;SDS011;64877;50.994;13.650;2023-12-28T14:17:43;1.80;;;1.00;;
76131;SDS011;64877;50.994;13.650;2023-12-28T14:20:09;2.35;;;1.00;;
76131;SDS011;64877;50.994;13.650;2023-12-28T14:22:40;2.03;;;1.00;;
76131;SDS011;64877;50.994;13.650;2023-12-28T14:25:07;3.20;;;0.82;;
76131;SDS011;64877;50.994;13.650;2023-12-28T14:27:37;2.60;;;1.20;;
76131;SDS011;64877;50.994;13.650;2023-12-28T14:30:04;2.25;;;1.17;;
76131;SDS011;64877;50.994;13.650;2023-12-28T14:32:31;3.38;;;1.85;;
76131;SDS011;64877;50.994;13.650;2023-12-28T14:35:03;3.22;;;0.98;;
76131;SDS011;64877;50.994;13.650;2023-12-28T14:37:29;2.60;;;1.27;;
76131;SDS011;64877;50.994;13.650;2023-12-28T14:39:55;3.55;;;1.10;;
76131;SDS011;64877;50.994;13.650;2023-12-28T14:42:22;1.50;;;0.90;;
76131;SDS011;64877;50.994;13.650;2023-12-28T14:44:48;2.50;;;1.20;;